Terminal Aerodrome Forecast
Issued by NWS Upton, NY

Home | Current Version | Previous Version | Text Only | Print | Product List | Glossary On
Versions: 1 2 3 4 5 6 7 8 9 10 11 12 13 14 15 16 17 18 19 20 21 22 23 24 25 26 27 28 29 30 31 32 33 34 35 36 37 38 39
000
FTUS41 KOKX 171514 AAC
TAFEWR
TAF AMD
KEWR 171514Z 1715/1818 VRB02KT P6SM BKN025 OVC060
      TEMPO 1716/1717 5SM -RA
     FM171700 09006KT 4SM -RA BR BKN025 OVC035
     FM180000 06005KT 1 1/2SM -RA BR OVC004
     FM180700 35005KT 3SM -RA BR OVC009
     FM181300 33009KT 5SM -RA BR BKN012 OVC020=

USA.gov is the U.S. government's official web portal to all federal, state and local government web resources and services.